Portland International Airport
KPDX : rendu visible

Aérodrome :











RETROUVEZ-NOUS SUR...

 
LOGIN :

S'inscrire | Disclaimer

   EN    FR    IT 

 









Légende :    VFR   VFR Marginal   IFR   IFR Intensif   IFR Très Intensif
Visi : 
Plafond : 
>= 8 km
>= 3000ft
5 à 8 km
1000 à 3000 ft
1500m à 5 km
500 à 1000 ft
800 à 1500m
200 à 500 ft
< 800m
< 200 ft
Symboles :   Orages  Brouillard  Fortes neiges  Fortes précipitations  Vent > 20 kt






- Altitude de l'aérodrome : 31 ft
- Code IATA : PDX


KPDX - Portland International

DERNIER METAR :
  • 310453Z 25008KT 9SM -RA FEW018 BKN030 OVC036 12/09 A2999 RMK AO2 RAB45 SLP154 P0000 T01220094

METARs EXPIRÉS :
  • 310353Z 00000KT 10SM FEW018 BKN032 OVC040 13/09 A2997 RMK AO2 RAE0257 SLP150 P0000 T01280094
  • 310319Z 28006KT 10SM FEW018 BKN032 OVC040 13/08 A2997 RMK AO2 RAE0257 P0000 T01330083
  • 310253Z 28004KT 10SM -RA FEW015 BKN026 OVC065 13/10 A2997 RMK AO2 RAE08B47 SLP148 P0001 60001 T01330100 53008
  • 310227Z 21004KT 10SM FEW016 BKN024 OVC065 13/10 A2996 RMK AO2 RAE08 P0001 T01330100

TAF KPDX
Valide du 31 à 06h jusqu'au 01 à 06h UTC


310520Z 3106/0106 VRB04KT P6SM -SHRA FEW015 SCT025 OVC050
FM311000 VRB04KT P6SM VCSH SCT025 OVC050
FM311800 31006KT P6SM SCT050 BKN100
FIR KZSE / Amérique du Nord



MET'MAP, la Météo Aéronautique d'un coup d'oeil ! - Copyright ORBIFLY Décembre 2007 - Disclaimer

ORBIFLY MET'MAP TEAM :

Programmation & Développement : Alexandra Zaïnal
Sur une idée originale de : Baudouin d'Aumeries
Assistance à la programmation : Marc-Olivier Méhu
Soutien technique & logistique : Manuel Goepfert

Contact : metmap@orbifly.com




SOURCES & CREDITS :

   NOAA       Earth
Advisory